首页
METAR-TAF:

METAR-TAF

机场 :

Ashland, 威斯康辛州, 美国

纬度: 46-32-59N, 经度: 090-55-06W, 海拔: 251米

当前天气观测

该预报发布于25分钟前的05:53 UTC
风速6节,风向西
温度 -11°C
湿度 78%
气压 1017 hPa
能見度: 16.1公里
阴天层高于1900英尺

METAR: KASX 190553Z AUTO 28006KT 10SM OVC019 M11/M14 A3003 RMK AO2 SNE0455B13E22 SLP188 P0000 60000 T11061144 11083 21106 410501106 51009

时间: 00:18 (06:18 UTC)


TAF: 丢失

超过4000个机场的气象观测和天气预报(METAR&TAF报告)。

可查询的气象台以黄色和红色小点在地图上表示。

将鼠标移到小点上方,可查看气象台名称。

然后点击查看天气观测和预报。

如需切换地图:点击带黑十字的绿色按钮放大地图;点击带横线的绿色按钮缩小地图;或者点击绿色箭头查看邻近地区的地图。


METAR-TAF: